Scottish Airport Reports

Civil airfields updated at H+20 and H+50
RAF airfields updated at H+50 only

EGPD - Aberdeen
Distance from station: NNE 19mi, 31km
Updated: 22/10/2018 06:20
Clear
Clear
 Wind from SW
Wind: SW 6 mph , 9 km/h
Temperature: 5°C
Wind Chill: 3°C
Dew Point: 1°C
Humidity: 76%
Barometer: 1030 hPa
Clouds: Clear
Visibility: 6 miles , 10 km
2018/10/22 05:20 EGPD 220520Z AUTO 23005KT 9999 NCD 05/01 Q1030
EGPN - Dundee
Distance from station: SW 41mi, 66km
Updated: 22/10/2018 06:20
Few Clouds
Few Clouds
 Wind from NW
Wind: NW 5 mph , 7 km/h
Temperature: 7°C
Wind Chill: 6°C
Dew Point: 3°C
Humidity: 76%
Barometer: 1032 hPa
Clouds: Few Clouds
Visibility: 6 miles , 10 km
Cloud details: Few Clouds 4000 ft
2018/10/22 05:20 EGPN 220520Z 32004KT 9999 FEW040 07/03 Q1032
 
EGQS - RAF Lossiemouth
Distance from station: NNW 63mi, 102km
Updated: 22/10/2018 05:50
Mostly cloudy
Mostly cloudy
 Wind from WSW
Wind: WSW 13 mph , 20 km/h
Temperature: 8°C
Wind Chill: 4°C
Dew Point: 5°C
Humidity: 82%
Barometer: 1029 hPa
Clouds: Mostly cloudy
Visibility: 6 miles , 10 km
Cloud details: Few Clouds 3200 ft
Mostly cloudy 3800 ft
2018/10/22 04:50 EGQS 220450Z 25011KT 9999 FEW032 BKN038 08/05 Q1029 BLU
EGPE - Inverness
Distance from station: WNW 73mi, 117km
Updated: 22/10/2018 06:20
Few Clouds
Few Clouds
 Wind from WSW
Wind: WSW 14 mph , 22 km/h
Temperature: 6°C
Wind Chill: 2°C
Dew Point: 4°C
Humidity: 87%
Barometer: 1030 hPa
Clouds: Few Clouds
Visibility: 6 miles , 10 km
Cloud details: Few Clouds 1500 ft
2018/10/22 05:20 EGPE 220520Z 24012KT 9999 FEW015 06/04 Q1030
 
EGPH - Edinburgh
Distance from station: SSW 77mi, 125km
Updated: 22/10/2018 06:20
Clear
Clear
 Wind from WSW
Wind: WSW 15 mph , 24 km/h
Temperature: 6°C
Wind Chill: 2°C
Dew Point: 4°C
Humidity: 87%
Barometer: 1033 hPa
Summary: Clear
Visibility: greater than 7 miles , 10 km
2018/10/22 05:20 EGPH 220520Z 24013KT CAVOK 06/04 Q1033
EGPC - Wick
Distance from station: NNW 107mi, 172km
Updated: 22/10/2018 06:20
Partly cloudy
Partly cloudy
 Wind from W
Wind: W 20 mph , 31 km/h
Temperature: 7°C
Wind Chill: 3°C
Dew Point: 4°C
Humidity: 81%
Barometer: 1026 hPa
Clouds: Partly cloudy
Visibility: 6 miles , 10 km
Cloud details: Few Clouds 1400 ft
Partly cloudy 3200 ft
2018/10/22 05:20 EGPC 220520Z 28017KT 9999 FEW014 SCT032 07/04 Q1026
 
EGPF - Glasgow
Distance from station: SW 107mi, 172km
Updated: 22/10/2018 06:20
Mostly cloudy
Mostly cloudy
 Wind from WSW
Wind: WSW 10 mph , 17 km/h
Temperature: 7°C
Wind Chill: 4°C
Dew Point: 5°C
Humidity: 87%
Barometer: 1034 hPa
Clouds: Mostly cloudy
Visibility: 6 miles , 10 km
Cloud details: Partly cloudy 3500 ft
Mostly cloudy 4200 ft
2018/10/22 05:20 EGPF 220520Z AUTO 24009KT 9999 SCT035 BKN042 07/05 Q1034
EGPK - Prestwick
Distance from station: SW 130mi, 209km
Updated: 22/10/2018 05:50
Few Clouds
Few Clouds
 Wind from WNW
Wind: WNW 10 mph , 17 km/h
Temperature: 10°C
Wind Chill: 8°C
Dew Point: 6°C
Humidity: 76%
Barometer: 1035 hPa
Clouds: Few Clouds
Visibility: 6 miles , 10 km
Cloud details: Few Clouds 3000 ft
2018/10/22 04:50 EGPK 220450Z 30009KT 9999 FEW030 10/06 Q1035
 
EGPA - Kirkwall, Orkney
Distance from station: N 140mi, 225km
Updated: 22/10/2018 06:20
Nearby showers, Partly cloudy
Nearby showers, Partly cloudy
 Wind from WNW
Wind: WNW 18 mph , 30 km/h
Temperature: 7°C
Wind Chill: 3°C
Dew Point: 3°C
Humidity: 76%
Barometer: 1025 hPa
Summary: Nearby Showers
Clouds: Partly cloudy
Visibility: 6 miles , 10 km
Cloud details: Few Clouds 1200 ft
Partly cloudy 3600 ft
2018/10/22 05:20 EGPA 220520Z 29016KT 9999 VCSH FEW012 SCT036 07/03 Q1025
EGPO - Stornoway, Outer Hebrides
Distance from station: WNW 169mi, 273km
Updated: 22/10/2018 06:20
Nearby showers, Partly cloudy
Nearby showers, Partly cloudy
 Wind from WSW
Wind: WSW 14 mph , 22 km/h
Temperature: 8°C
Wind Chill: 4°C
Dew Point: 5°C
Humidity: 82%
Barometer: 1028 hPa
Summary: Nearby Showers
Clouds: Partly cloudy
Visibility: 6 miles , 10 km
Cloud details: Few Clouds 1800 ft
Partly cloudy 3200 ft
2018/10/22 05:20 EGPO 220520Z 25012KT 9999 VCSH FEW018CB SCT032 08/05 Q1028
 
EGPI - Islay, Inner Hebrides
Distance from station: WSW 172mi, 276km
Updated: 22/10/2018 06:20
Mostly cloudy
Mostly cloudy
 Wind from WNW
Wind: WNW 18 mph , 30 km/h
Temperature: 9°C
Wind Chill: 5°C
Dew Point: 7°C
Humidity: 87%
Barometer: 1035 hPa
Clouds: Mostly cloudy
Visibility: 6 miles , 10 km
Cloud details: Few Clouds 3000 ft
Mostly cloudy 4500 ft
2018/10/22 05:20 EGPI 220520Z AUTO 29016KT 9999 FEW030/// BKN045/// 09/07 Q1035 RERA
EGPU - Tiree, Inner Hebrides
Distance from station: W 172mi, 276km
Updated: 22/10/2018 06:20
Partly cloudy
Partly cloudy
 Wind from WNW
Wind: WNW 20 mph , 31 km/h
Temperature: 9°C
Wind Chill: 5°C
Dew Point: 6°C
Humidity: 82%
Barometer: 1034 hPa
Clouds: Partly cloudy
Visibility: 6 miles , 10 km
Cloud details: Partly cloudy 2500 ft
2018/10/22 05:20 EGPU 220520Z AUTO 29017KT 9999 SCT025/// 09/06 Q1034 RERA
 
EGPB - Sumburgh, Shetland
Distance from station: NNE 208mi, 332km
Updated: 22/10/2018 06:20
Partly cloudy
Partly cloudy
 Wind from WNW
Wind: WNW 30 mph , 48 km/h, Gust: 46 mph , 74 km/h
Temperature: 9°C
Wind Chill: 4°C
Dew Point: 3°C
Humidity: 66%
Barometer: 1021 hPa
Clouds: Partly cloudy
Visibility: 6 miles , 10 km
Cloud details: Partly cloudy 3000 ft
2018/10/22 05:20 EGPB 220520Z 29026G40KT 9999 SCT030 09/03 Q1021
EGPM - Scatsa, Shetland
Distance from station: NNE 245mi, 392km
Updated: 22/10/2018 06:20
Few Clouds
Few Clouds
 Wind from W
Wind: W 22 mph , 35 km/h
Temperature: 7°C
Wind Chill: 3°C
Dew Point: 5°C
Humidity: 87%
Barometer: 1019 hPa
Clouds: Few Clouds
Visibility: 6 miles , 10 km
Cloud details: Few Clouds 1600 ft
2018/10/22 05:20 EGPM 220520Z 28019KT 9999 FEW016 07/05 Q1019 NOSIG
-->